VTSR

Details ICAO VTSR
Name Ranong
Region Thailand
Timezone Asia/Bangkok (UTC+7.0)
Plans Departing 8
Arriving 13
Stats Elevation 57 ft / 17 m (AMSL)
Location 9.777622° 98.585483°
Runways 1
Magnetic Variation 0.450° W
Sunrise 2018-05-26 23:05:13 UTC / 2018-05-27 06:05:13 Local
Sunset 2018-05-27 11:43:13 UTC / 2018-05-27 18:43:13 Local
Advertisement - Login to hide

Runways

ID Width Length Bearing (true) Bearing (mag) Surface Threshold Offset Overrun Length
02 148 ft / 45 m 6,596 ft / 2,010 m 23.62° 24.07° Concrete 0 ft / 0 m 197 ft / 60 m
20 148 ft / 45 m 6,596 ft / 2,010 m 203.62° 204.07° Concrete 0 ft / 0 m 197 ft / 60 m

Approach Navaids

Runway Type Ident Frequency Range Bearing (true) Bearing (mag) Slope Elevation
02 Localiser IRAN 110.50 MHz 18 nm / 33 km 23.62° 24.07° - 57 ft / 17 m (AMSL)
02 Glidescope IRAN 110.50 MHz 10 nm / 19 km 23.62° 24.07° 3.00° 36 ft / 11 m (AMSL)
02 DME IRAN 111.10 MHz 18 nm / 33 km - - - 57 ft / 17 m (AMSL)

Map

Weather


0- 5 10 15 20 25 30 35+ Temperature / ° C

Clouds and Precipitation
Forecast for 2018-05-27 00:00 UTC. Updated 3 hours ago

Ground ~20,000 ft ~40,000 ft Winds

METAR

VTSR 270200Z 00000KT CAVOK 31/25 Q1010

TAF

TAF VTSR 262300Z 2700/2724 VRB02KT 9999 BKN025 BECMG 2704/2706 26008KT FEW015 TEMPO 2706/2710 VRB10G20KT 5000 TSRA FEW018CB SCT020 BKN100

Frequencies

Tower 122.25 MHz TWR
Approach 125.10 MHz APP
Warning: Do not use this data for real-world aviation or navigation. No guarantee of current accuracy is given.